Time;durP1;ratioP1;P1;durP2;ratioP2;P2;SDS_P1;SDS_P2;PMS_P1;PMS_P2;Temp;Humidity;BMP_temperature;BMP_pressure;BME280_temperature;BME280_humidity;BME280_pressure;Samples;Min_cycle;Max_cycle;Signal;HPM_P1;HPM_P2
2021/11/07 00:02:27;;;;;;;10.40;9.23;;;;;;;9.88;81.24;101122.00;6222948;28;20231;-64
2021/11/07 00:05:55;;;;;;;10.97;10.00;;;;;;;9.98;81.60;101113.34;6224884;28;20230;-64
2021/11/07 00:09:22;;;;;;;11.93;10.73;;;;;;;9.91;82.59;101116.81;6226688;28;20228;-64
2021/11/07 00:12:47;;;;;;;12.03;10.93;;;;;;;9.64;83.22;101084.75;6227104;28;20228;-65
2021/11/07 00:16:09;;;;;;;10.93;9.80;;;;;;;9.64;84.19;101082.16;6236246;28;20204;-63
2021/11/07 00:19:33;;;;;;;13.27;11.97;;;;;;;9.63;84.73;101079.53;6239686;28;20575;-63
2021/11/07 00:22:59;;;;;;;12.30;11.00;;;;;;;9.63;85.07;101080.44;6230321;28;20228;-63
2021/11/07 00:26:25;;;;;;;12.07;11.00;;;;;;;9.67;84.31;101060.47;6230670;28;20231;-63
2021/11/07 00:29:51;;;;;;;11.07;9.97;;;;;;;9.59;84.57;101063.06;6238413;28;20236;-64
2021/11/07 00:33:20;;;;;;;9.00;8.10;;;;;;;9.58;84.61;101052.72;6241221;28;20240;-64
2021/11/07 00:36:43;;;;;;;11.37;10.47;;;;;;;9.89;83.46;101037.00;6239523;28;20228;-63
2021/11/07 00:40:14;;;;;;;10.17;9.37;;;;;;;9.53;84.99;101037.09;6240564;28;20204;-63
2021/11/07 00:43:40;;;;;;;10.53;9.73;;;;;;;9.60;85.80;101020.63;6239354;28;20460;-64
2021/11/07 00:47:11;;;;;;;10.37;9.53;;;;;;;9.65;85.38;101024.09;6241138;28;20260;-64
2021/11/07 00:50:42;;;;;;;9.97;9.07;;;;;;;9.68;85.47;101006.75;6234803;28;20377;-64
2021/11/07 00:54:19;;;;;;;10.83;9.83;;;;;;;9.68;85.55;100988.53;6211530;28;20216;-64
2021/11/07 00:57:51;;;;;;;9.73;9.07;;;;;;;9.47;85.74;100985.13;6210917;28;20233;-64
2021/11/07 01:01:13;;;;;;;9.27;8.47;;;;;;;9.33;87.50;100971.28;6212991;28;20386;-64
2021/11/07 01:04:37;;;;;;;11.03;10.13;;;;;;;9.55;87.08;100975.56;6220058;28;20269;-63
2021/11/07 01:07:58;;;;;;;10.60;9.80;;;;;;;9.45;87.40;100968.66;6229052;28;20237;-64
2021/11/07 01:11:19;;;;;;;10.53;9.77;;;;;;;9.59;86.88;100959.06;6239223;28;20243;-65
2021/11/07 01:14:40;;;;;;;8.97;8.27;;;;;;;9.31;86.83;100949.63;6239571;28;20204;-65
2021/11/07 01:18:01;;;;;;;8.73;8.03;;;;;;;9.53;86.43;100950.44;6241047;28;20241;-64
2021/11/07 01:21:25;;;;;;;8.70;8.00;;;;;;;9.37;86.05;100975.59;6238519;28;20578;-65
2021/11/07 01:24:53;;;;;;;10.40;9.37;;;;;;;9.89;85.06;100936.44;6238377;28;20258;-65
2021/11/07 01:28:15;;;;;;;10.43;9.63;;;;;;;9.70;85.42;100950.41;6234420;28;20225;-64
2021/11/07 01:31:37;;;;;;;8.10;7.40;;;;;;;9.43;85.53;100936.59;6234586;28;20228;-65
2021/11/07 01:35:03;;;;;;;10.40;9.60;;;;;;;9.80;85.46;100913.06;6242528;28;20196;-64
2021/11/07 01:38:28;;;;;;;8.87;8.17;;;;;;;9.76;85.18;100913.97;6237973;28;20244;-65
2021/11/07 01:42:04;;;;;;;8.37;7.77;;;;;;;9.90;84.22;100922.56;6237500;28;20263;-64
2021/11/07 01:45:29;;;;;;;8.57;7.87;;;;;;;9.79;84.10;100906.13;6240916;28;20201;-63
2021/11/07 01:48:55;;;;;;;7.13;6.50;;;;;;;9.70;84.23;100914.00;6237472;28;20224;-64
2021/11/07 01:52:17;;;;;;;8.77;7.87;;;;;;;9.93;83.90;100880.06;6231363;28;20570;-64
2021/11/07 01:55:39;;;;;;;8.97;8.20;;;;;;;9.66;85.68;100901.00;6237199;28;20701;-65
2021/11/07 01:58:59;;;;;;;7.70;7.10;;;;;;;9.57;85.85;100893.22;6212246;28;20229;-65
2021/11/07 02:02:23;;;;;;;12.10;10.03;;;;;;;9.54;86.41;100887.16;6212928;28;20224;-65
2021/11/07 02:05:45;;;;;;;8.47;7.77;;;;;;;9.84;85.41;100867.97;6214897;28;20253;-65
2021/11/07 02:09:06;;;;;;;7.80;7.20;;;;;;;9.86;85.73;100869.69;6236652;28;20228;-65
2021/11/07 02:12:28;;;;;;;7.40;6.90;;;;;;;9.80;85.26;100851.50;6238085;28;20235;-64
2021/11/07 02:15:49;;;;;;;6.10;5.60;;;;;;;9.62;85.44;100849.00;6242370;28;20244;-64
2021/11/07 02:19:15;;;;;;;7.87;7.27;;;;;;;9.68;85.36;100856.78;6214137;28;20217;-65
2021/11/07 02:22:38;;;;;;;7.23;6.63;;;;;;;9.77;85.14;100843.75;6212825;28;20234;-64
2021/11/07 02:26:03;;;;;;;6.93;6.40;;;;;;;9.79;85.01;100829.00;6214362;28;20279;-66
2021/11/07 02:29:26;;;;;;;7.23;6.73;;;;;;;9.83;85.08;100835.03;6217660;28;20189;-65
2021/11/07 02:32:49;;;;;;;8.27;7.60;;;;;;;9.91;84.64;100828.06;6208540;28;20233;-65
2021/11/07 02:36:13;;;;;;;7.10;6.63;;;;;;;10.06;84.15;100816.66;6207175;28;20201;-64
2021/11/07 02:39:35;;;;;;;8.90;8.30;;;;;;;10.16;83.65;100815.75;6216890;28;20589;-65
2021/11/07 02:42:57;;;;;;;7.70;7.03;;;;;;;9.96;83.74;100797.66;6215144;28;21217;-65
2021/11/07 02:46:18;;;;;;;7.47;6.67;;;;;;;10.23;83.54;100807.00;6215422;28;20232;-64
2021/11/07 02:49:40;;;;;;;7.77;7.20;;;;;;;10.29;82.49;100800.03;6217052;28;20221;-65
2021/11/07 02:53:01;;;;;;;7.60;6.90;;;;;;;10.08;82.92;100793.22;6215644;28;20244;-65
2021/11/07 02:56:24;;;;;;;6.77;6.27;;;;;;;10.05;83.12;100779.38;6213590;28;20233;-64
2021/11/07 02:59:48;;;;;;;6.50;6.00;;;;;;;10.04;83.78;100785.47;6215896;28;20229;-65
2021/11/07 03:03:09;;;;;;;6.77;6.17;;;;;;;10.04;83.76;100790.66;6215985;28;21289;-65
2021/11/07 03:06:31;;;;;;;5.30;4.93;;;;;;;9.97;84.37;100788.97;6224637;28;20232;-65
2021/11/07 03:09:53;;;;;;;7.63;6.90;;;;;;;9.87;85.04;100782.13;6240976;28;20295;-65
2021/11/07 03:13:17;;;;;;;6.27;5.77;;;;;;;9.79;85.62;100778.69;6218386;28;20228;-64
2021/11/07 03:16:37;;;;;;;7.53;6.97;;;;;;;9.97;84.97;100768.16;6217201;28;20319;-64
2021/11/07 03:19:59;;;;;;;7.10;6.60;;;;;;;9.95;84.81;100756.91;6229282;28;20602;-64
2021/11/07 03:23:22;;;;;;;6.47;6.07;;;;;;;9.82;86.19;100752.66;6225212;28;20283;-65
2021/11/07 03:26:43;;;;;;;7.10;6.60;;;;;;;9.71;87.40;100772.69;6213089;28;20631;-65
2021/11/07 03:30:13;;;;;;;6.60;6.10;;;;;;;9.65;88.70;100753.66;6203879;28;20277;-65
2021/11/07 03:33:39;;;;;;;7.67;7.07;;;;;;;9.72;88.08;100761.41;6213075;28;20229;-64
2021/11/07 03:37:04;;;;;;;6.63;6.13;;;;;;;9.75;88.04;100750.97;6208229;28;20232;-64
2021/11/07 03:40:26;;;;;;;6.43;5.93;;;;;;;9.62;87.80;100760.59;6211742;28;20247;-63
2021/11/07 03:43:48;;;;;;;6.50;6.00;;;;;;;9.66;87.93;100763.16;6208681;28;20229;-64
2021/11/07 03:47:11;;;;;;;8.37;6.73;;;;;;;9.82;87.81;100763.06;6220984;28;20228;-64
2021/11/07 03:50:32;;;;;;;6.93;6.33;;;;;;;9.73;88.06;100752.72;6236113;28;20288;-65
2021/11/07 03:53:53;;;;;;;5.53;5.13;;;;;;;9.88;87.68;100755.22;6238141;28;20233;-64
2021/11/07 03:57:15;;;;;;;6.67;4.10;;;;;;;9.79;86.72;100747.47;6237865;28;20232;-64
2021/11/07 04:00:36;;;;;;;4.10;3.80;;;;;;;9.71;86.88;100744.06;6238022;28;20204;-65
2021/11/07 04:03:58;;;;;;;3.77;3.47;;;;;;;9.90;86.01;100750.00;6240887;28;20217;-64
2021/11/07 04:07:19;;;;;;;4.10;3.67;;;;;;;9.99;85.36;100749.94;6244075;28;20322;-65
2021/11/07 04:10:40;;;;;;;3.70;3.40;;;;;;;9.80;85.98;100744.00;6240636;28;20645;-64
2021/11/07 04:14:01;;;;;;;3.50;3.20;;;;;;;9.99;85.17;100737.81;6216235;28;20222;-64
2021/11/07 04:17:22;;;;;;;3.53;3.23;;;;;;;10.30;83.91;100719.34;6227108;28;20815;-65
2021/11/07 04:20:44;;;;;;;3.03;2.50;;;;;;;9.91;85.67;100723.13;6239917;28;20209;-65
2021/11/07 04:24:05;;;;;;;2.80;2.53;;;;;;;10.11;84.07;100730.78;6213737;28;20594;-64
2021/11/07 04:27:26;;;;;;;3.13;2.73;;;;;;;10.05;84.52;100718.69;6225965;28;20228;-65
2021/11/07 04:30:48;;;;;;;3.53;3.00;;;;;;;9.94;85.15;100713.53;6242796;28;20213;-64
2021/11/07 04:34:09;;;;;;;5.30;3.10;;;;;;;9.93;84.54;100709.25;6240427;28;20223;-64
2021/11/07 04:37:32;;;;;;;2.80;1.87;;;;;;;10.10;83.98;100710.81;6239202;28;20277;-64
2021/11/07 04:40:54;;;;;;;2.70;1.90;;;;;;;9.97;84.24;100703.13;6238436;28;20762;-64
2021/11/07 04:44:14;;;;;;;2.80;1.77;;;;;;;9.94;83.76;100700.53;6237298;28;20221;-65
2021/11/07 04:47:36;;;;;;;2.80;1.60;;;;;;;9.95;83.00;100706.63;6233628;28;20231;-64
2021/11/07 04:50:57;;;;;;;5.03;2.13;;;;;;;10.03;82.45;100703.06;6242287;28;20196;-64
2021/11/07 04:54:20;;;;;;;5.50;2.20;;;;;;;10.04;81.54;100710.00;6242382;28;20216;-65
2021/11/07 04:57:42;;;;;;;4.70;2.20;;;;;;;10.33;80.89;100698.50;6241282;28;20228;-64
2021/11/07 05:01:05;;;;;;;6.77;1.80;;;;;;;10.13;81.54;100695.19;6240105;28;20211;-64
2021/11/07 05:04:27;;;;;;;6.47;2.80;;;;;;;10.20;81.25;100686.47;6243101;28;20205;-65
2021/11/07 05:07:48;;;;;;;12.00;3.33;;;;;;;10.20;80.68;100691.66;6242334;28;20324;-64
2021/11/07 05:11:11;;;;;;;6.07;1.97;;;;;;;9.96;81.44;100690.97;6238006;28;20197;-64
2021/11/07 05:14:32;;;;;;;7.00;2.73;;;;;;;10.19;80.34;100684.72;6241563;28;20557;-64
2021/11/07 05:17:53;;;;;;;5.70;2.03;;;;;;;10.18;79.73;100694.28;6239717;28;21793;-64
2021/11/07 05:21:14;;;;;;;2.03;1.50;;;;;;;10.02;80.27;100690.97;6238721;28;20189;-64
2021/11/07 05:24:35;;;;;;;5.00;2.10;;;;;;;10.01;80.40;100660.59;6240408;28;20595;-64
2021/11/07 05:27:58;;;;;;;5.27;1.77;;;;;;;10.29;80.32;100677.69;6219948;28;20221;-65
2021/11/07 05:31:20;;;;;;;4.43;2.37;;;;;;;10.31;80.27;100684.63;6217912;28;21385;-64
2021/11/07 05:34:42;;;;;;;8.90;2.53;;;;;;;10.24;80.68;100686.41;6213672;28;20626;-63
2021/11/07 05:38:03;;;;;;;5.00;2.67;;;;;;;10.22;80.89;100680.34;6232038;28;20232;-64
2021/11/07 05:41:25;;;;;;;8.63;2.77;;;;;;;10.18;81.45;100678.66;6237268;28;20606;-64
2021/11/07 05:44:48;;;;;;;7.30;3.60;;;;;;;10.36;80.31;100680.25;6225621;28;20209;-64
2021/11/07 05:48:09;;;;;;;5.87;3.43;;;;;;;10.44;80.25;100664.53;6223218;28;20347;-64
2021/11/07 05:51:30;;;;;;;10.97;3.07;;;;;;;10.30;81.04;100698.53;6222898;28;20224;-65
2021/11/07 05:54:51;;;;;;;9.03;3.00;;;;;;;10.19;81.70;100695.13;6221956;28;20216;-64
2021/11/07 05:58:12;;;;;;;6.57;3.40;;;;;;;10.25;80.35;100697.66;6210748;28;20229;-63
2021/11/07 06:01:37;;;;;;;8.67;2.90;;;;;;;10.37;80.52;100701.91;6206091;28;20324;-64
2021/11/07 06:04:58;;;;;;;8.47;3.50;;;;;;;10.25;81.09;100700.28;6213501;28;20464;-65
2021/11/07 06:08:19;;;;;;;6.17;2.83;;;;;;;10.18;81.86;100703.84;6212293;28;20254;-64
2021/11/07 06:11:40;;;;;;;12.93;3.70;;;;;;;10.23;81.37;100699.41;6207977;28;20229;-65
2021/11/07 06:15:01;;;;;;;5.53;2.50;;;;;;;10.24;81.36;100686.41;6217786;28;20300;-65
2021/11/07 06:18:23;;;;;;;8.17;2.40;;;;;;;10.09;81.82;100693.50;6214649;28;20256;-62
2021/11/07 06:21:45;;;;;;;13.57;4.07;;;;;;;10.20;81.33;100699.47;6207043;28;20237;-65
2021/11/07 06:25:07;;;;;;;11.57;3.03;;;;;;;9.97;81.42;100699.66;6209135;28;20284;-64
2021/11/07 06:28:28;;;;;;;9.43;3.30;;;;;;;10.11;81.34;100702.16;6229088;28;20273;-63
2021/11/07 06:31:52;;;;;;;10.40;4.13;;;;;;;10.01;81.47;100717.84;6227284;28;20602;-64
2021/11/07 06:35:14;;;;;;;15.30;5.20;;;;;;;10.13;81.02;100708.19;6217359;28;20256;-63
2021/11/07 06:38:35;;;;;;;14.17;3.50;;;;;;;9.99;81.53;100713.53;6235469;28;20353;-64
2021/11/07 06:41:56;;;;;;;10.23;4.20;;;;;;;10.03;81.17;100713.47;6226989;28;20747;-65
2021/11/07 06:45:17;;;;;;;7.63;2.50;;;;;;;10.25;79.78;100695.06;6223550;28;21332;-65
2021/11/07 06:48:40;;;;;;;9.47;2.57;;;;;;;9.84;79.19;100704.09;6208682;28;20228;-63
2021/11/07 06:52:04;;;;;;;10.67;3.27;;;;;;;9.92;77.09;100719.66;6208022;28;20558;-65
2021/11/07 06:55:25;;;;;;;8.17;2.90;;;;;;;10.18;74.43;100709.03;6204027;28;20209;-65
2021/11/07 06:58:46;;;;;;;8.53;2.87;;;;;;;10.21;73.82;100719.41;6200195;28;20229;-65
2021/11/07 07:02:07;;;;;;;7.93;2.90;;;;;;;10.09;75.00;100729.94;6202509;28;20240;-64
2021/11/07 07:05:29;;;;;;;8.70;3.57;;;;;;;10.03;75.93;100736.91;6211152;28;20554;-64
2021/11/07 07:08:54;;;;;;;13.87;4.80;;;;;;;10.25;76.05;100727.19;6211489;28;20237;-63
2021/11/07 07:12:18;;;;;;;9.47;3.87;;;;;;;10.08;77.22;100723.88;6211062;28;20693;-65
2021/11/07 07:15:42;;;;;;;12.53;3.73;;;;;;;10.02;77.10;100716.97;6216800;28;20237;-64
2021/11/07 07:19:14;;;;;;;6.40;3.80;;;;;;;10.18;76.20;100729.84;6233892;28;20251;-64
2021/11/07 07:26:35;;;;;;;11.20;3.47;;;;;;;10.02;76.93;100722.19;6236714;28;20574;-65
2021/11/07 07:30:11;;;;;;;11.87;3.83;;;;;;;9.98;76.32;100727.41;6239177;28;20461;-64
2021/11/07 07:33:37;;;;;;;13.27;3.77;;;;;;;9.73;76.63;100722.41;6244923;28;20255;-64
2021/11/07 07:36:58;;;;;;;10.00;3.07;;;;;;;9.95;76.19;100717.88;6243040;28;20228;-64
2021/11/07 07:40:19;;;;;;;11.53;3.80;;;;;;;10.12;75.33;100733.38;6232689;28;20536;-64
2021/11/07 07:43:41;;;;;;;12.80;3.23;;;;;;;10.13;76.04;100739.44;6231457;28;20240;-64
2021/11/07 07:47:03;;;;;;;14.17;3.93;;;;;;;10.13;74.64;100732.47;6231563;28;20304;-65
2021/11/07 07:50:24;;;;;;;13.70;3.43;;;;;;;10.21;74.39;100746.28;6233875;28;20237;-64
2021/11/07 07:53:46;;;;;;;10.63;2.77;;;;;;;10.28;73.56;100741.91;6232640;28;20359;-65
2021/11/07 07:57:07;;;;;;;11.83;3.30;;;;;;;10.19;74.24;100736.78;6235739;28;20228;-64
2021/11/07 08:00:30;;;;;;;10.97;2.60;;;;;;;10.22;74.48;100750.63;6234700;28;20653;-64
2021/11/07 08:03:51;;;;;;;12.33;4.43;;;;;;;9.99;74.50;100736.94;6242148;28;20628;-64
2021/11/07 08:07:12;;;;;;;10.50;3.77;;;;;;;9.92;74.22;100743.91;6243714;28;20347;-64
2021/11/07 08:10:33;;;;;;;9.50;3.20;;;;;;;10.28;73.12;100731.50;6240237;28;20323;-64
2021/11/07 08:13:54;;;;;;;11.67;4.17;;;;;;;9.80;72.93;100738.81;6240811;28;20235;-63
2021/11/07 08:17:17;;;;;;;14.83;4.70;;;;;;;10.37;70.77;100733.16;6229643;28;20348;-64
2021/11/07 08:20:43;;;;;;;10.47;4.30;;;;;;;10.52;70.02;100725.19;6220217;28;20214;-65
2021/11/07 08:24:04;;;;;;;8.00;3.40;;;;;;;10.13;71.17;100736.81;6210233;28;20926;-64
2021/11/07 08:27:26;;;;;;;8.93;3.03;;;;;;;10.11;70.56;100754.19;6210624;28;20230;-64
2021/11/07 08:30:51;;;;;;;10.07;3.57;;;;;;;9.65;72.93;100739.78;6211442;28;20206;-63
2021/11/07 08:34:13;;;;;;;13.20;3.67;;;;;;;10.33;72.09;100752.28;6216826;28;20233;-63
2021/11/07 08:37:37;;;;;;;7.30;2.83;;;;;;;13.42;61.08;100742.38;6209511;28;20228;-63
2021/11/07 08:40:59;;;;;;;8.50;2.40;;;;;;;12.55;61.11;100750.19;6211163;28;20209;-63
2021/11/07 09:02:52;;;;;;;85.03;75.88;;;;;;;14.94;54.91;100740.34;6240002;28;20315;-61
2021/11/07 09:06:35;;;;;;;51.22;46.35;;;;;;;13.20;61.91;100755.88;6229189;28;20266;-62
2021/11/07 09:09:59;;;;;;;20.30;5.27;;;;;;;11.81;65.08;100777.47;6204680;28;21630;-62
2021/11/07 09:13:20;;;;;;;15.13;6.53;;;;;;;12.35;65.75;100758.38;6208521;28;20229;-63
2021/11/07 09:16:42;;;;;;;14.33;5.63;;;;;;;12.48;64.28;100743.34;6212995;28;20245;-63
2021/11/07 09:20:07;;;;;;;14.30;4.23;;;;;;;11.67;67.58;100751.59;6216445;28;20885;-64
2021/11/07 09:23:32;;;;;;;13.77;5.03;;;;;;;11.14;68.83;100759.22;6217066;28;20234;-63
2021/11/07 09:26:56;;;;;;;13.17;4.50;;;;;;;11.53;67.09;100759.59;6214559;28;20244;-63
2021/11/07 09:30:23;;;;;;;13.00;4.00;;;;;;;12.02;66.43;100773.72;6210387;28;20535;-64
2021/11/07 09:33:51;;;;;;;11.13;3.70;;;;;;;11.17;68.94;100761.81;6217106;28;20232;-64
2021/11/07 09:37:20;;;;;;;8.73;3.13;;;;;;;11.70;69.40;100767.19;6224441;28;20237;-63
2021/11/07 09:40:48;;;;;;;13.00;3.80;;;;;;;11.51;68.45;100756.16;6236860;28;20239;-63
2021/11/07 09:44:13;;;;;;;13.60;4.70;;;;;;;12.77;63.44;100763.69;6212241;28;20225;-63
2021/11/07 09:47:35;;;;;;;11.10;3.97;;;;;;;12.80;60.73;100771.50;6209846;28;20228;-64
2021/11/07 09:50:56;;;;;;;12.90;3.87;;;;;;;12.12;64.47;100766.59;6207813;28;20217;-63
2021/11/07 09:54:19;;;;;;;12.13;4.17;;;;;;;12.89;60.29;100758.25;6210681;28;20213;-64
2021/11/07 09:57:40;;;;;;;12.80;4.50;;;;;;;13.96;57.94;100770.78;6210902;28;20240;-63
2021/11/07 10:01:03;;;;;;;13.47;3.67;;;;;;;13.85;56.95;100753.63;6202599;28;20205;-64
2021/11/07 10:04:24;;;;;;;10.65;3.58;;;;;;;14.58;53.61;100758.81;6208544;28;20205;-65
2021/11/07 10:07:46;;;;;;;7.80;3.15;;;;;;;16.43;48.14;100750.59;6207193;28;20232;-64
2021/11/07 10:11:08;;;;;;;11.85;3.47;;;;;;;16.06;46.97;100750.06;6205386;28;20205;-63
2021/11/07 10:14:42;;;;;;;9.95;3.85;;;;;;;15.36;49.07;100753.13;6226262;28;20216;-62
2021/11/07 10:18:06;;;;;;;8.40;3.88;;;;;;;17.89;44.21;100751.34;6225449;28;20228;-62
2021/11/07 10:21:34;;;;;;;8.38;2.70;;;;;;;18.03;43.08;100748.16;6229055;28;20279;-62
2021/11/07 10:24:56;;;;;;;9.10;3.50;;;;;;;17.57;44.83;100757.00;6228509;28;20223;-62
2021/11/07 10:28:21;;;;;;;7.55;2.80;;;;;;;15.66;48.83;100771.44;6229865;28;20232;-60
2021/11/07 10:31:45;;;;;;;10.18;3.42;;;;;;;13.04;58.92;100783.22;6227416;28;20854;-61
2021/11/07 10:46:52;;;;;;;15.30;5.30;;;;;;;15.51;54.25;100773.66;6233153;28;20231;-62
2021/11/07 10:53:57;;;;;;;10.13;3.70;;;;;;;18.12;47.25;100762.69;6241360;28;20228;-62
2021/11/07 10:57:21;;;;;;;14.40;4.15;;;;;;;16.25;49.35;100739.81;6240215;28;20233;-63
2021/11/07 11:00:45;;;;;;;9.95;3.72;;;;;;;14.37;54.03;100753.19;6236620;28;20719;-62
2021/11/07 11:04:07;;;;;;;13.57;4.30;;;;;;;12.85;59.34;100758.31;6216680;28;20261;-62
2021/11/07 11:07:30;;;;;;;18.40;4.83;;;;;;;11.72;63.00;100775.00;6216181;28;20549;-62
2021/11/07 11:11:03;;;;;;;19.03;5.17;;;;;;;12.26;59.55;100800.31;6215116;28;20895;-61
2021/11/07 11:14:27;;;;;;;9.60;3.50;;;;;;;16.46;49.70;100737.34;6238518;28;20216;-61
2021/11/07 11:18:04;;;;;;;19.52;3.88;;;;;;;17.92;44.92;100749.50;6228523;28;20240;-63
2021/11/07 11:21:42;;;;;;;6.03;2.35;;;;;;;17.57;42.30;100743.84;6229119;28;21393;-62
2021/11/07 11:25:25;;;;;;;4.13;2.15;;;;;;;19.73;38.91;100738.84;6214667;28;20232;-62
2021/11/07 11:28:59;;;;;;;4.90;3.00;;;;;;;20.44;37.47;100736.19;6198719;28;20264;-61
2021/11/07 11:32:27;;;;;;;9.32;3.50;;;;;;;17.96;41.63;100756.34;6216051;28;21722;-63
2021/11/07 11:35:54;;;;;;;12.63;3.53;;;;;;;16.54;45.14;100749.31;6241159;28;20244;-63
2021/11/07 11:39:20;;;;;;;7.10;3.05;;;;;;;15.44;48.16;100751.13;6242243;28;20395;-63
2021/11/07 11:42:47;;;;;;;9.88;3.33;;;;;;;14.48;50.24;100773.00;6232898;28;20236;-63
2021/11/07 11:46:18;;;;;;;4.03;2.20;;;;;;;12.70;55.43;100773.41;6227915;28;20236;-61
2021/11/07 11:50:00;;;;;;;7.70;3.00;;;;;;;12.65;57.45;100806.59;6228248;28;20205;-62
2021/11/07 11:53:42;;;;;;;7.00;3.13;;;;;;;13.08;57.28;100792.72;6230120;28;20232;-61
2021/11/07 11:57:26;;;;;;;5.90;2.40;;;;;;;16.13;49.27;100771.75;6222383;28;20233;-61
2021/11/07 12:00:58;;;;;;;6.17;2.73;;;;;;;18.61;42.85;100755.38;6210064;28;20202;-61
2021/11/07 12:04:25;;;;;;;8.85;3.60;;;;;;;19.65;40.69;100740.97;6213260;28;20225;-62
2021/11/07 12:08:22;;;;;;;8.43;2.60;;;;;;;17.76;43.91;100739.56;6211850;28;20236;-62
2021/11/07 12:11:47;;;;;;;6.07;2.65;;;;;;;14.41;52.00;100750.50;6213372;28;20255;-61
2021/11/07 12:15:13;;;;;;;7.93;2.83;;;;;;;13.25;56.67;100736.63;6208031;28;21370;-62
2021/11/07 12:18:59;;;;;;;9.33;3.37;;;;;;;14.85;51.77;100720.50;6212546;28;20601;-62
2021/11/07 12:22:24;;;;;;;14.70;3.90;;;;;;;15.59;50.68;100734.03;6227137;28;20233;-61
2021/11/07 12:25:45;;;;;;;7.20;3.10;;;;;;;15.06;51.24;100728.63;6239419;28;20559;-62
2021/11/07 12:29:07;;;;;;;10.97;3.10;;;;;;;13.77;54.70;100723.25;6215195;28;20245;-63
2021/11/07 12:32:36;;;;;;;8.10;3.00;;;;;;;13.92;54.18;100732.50;6224936;28;20236;-61
2021/11/07 12:36:11;;;;;;;8.57;3.47;;;;;;;14.67;52.63;100737.56;6232897;28;20211;-62
2021/11/07 12:43:16;;;;;;;11.33;3.20;;;;;;;13.37;57.63;100726.75;6234698;28;20232;-63
2021/11/07 12:46:44;;;;;;;12.37;4.40;;;;;;;12.38;59.45;100725.22;6229236;28;20228;-63
2021/11/07 12:50:09;;;;;;;8.50;3.10;;;;;;;13.17;58.51;100742.00;6230386;28;20668;-61
2021/11/07 12:53:57;;;;;;;16.23;4.13;;;;;;;12.34;61.19;100734.00;6220622;28;20626;-62
2021/11/07 12:57:21;;;;;;;13.27;4.53;;;;;;;11.90;61.74;100742.56;6213527;28;20233;-63
2021/11/07 13:00:42;;;;;;;12.70;3.50;;;;;;;11.31;65.04;100763.38;6215933;28;20194;-62
2021/11/07 13:04:04;;;;;;;17.57;4.17;;;;;;;11.28;67.81;100774.69;6215867;28;20221;-62
2021/11/07 13:07:35;;;;;;;13.03;3.50;;;;;;;11.01;68.21;100758.53;6228490;28;20228;-65
2021/11/07 13:11:01;;;;;;;11.07;3.83;;;;;;;11.00;68.29;100750.72;6240705;28;20447;-63
2021/11/07 13:14:34;;;;;;;10.23;3.83;;;;;;;11.02;68.96;100748.97;6237700;28;20205;-63
2021/11/07 13:22:14;;;;;;;8.40;2.97;;;;;;;12.28;64.62;100744.56;6228832;28;20681;-60
2021/11/07 13:25:47;;;;;;;12.93;4.57;;;;;;;11.76;64.12;100745.38;6229846;28;20221;-61
2021/11/07 13:29:28;;;;;;;10.80;3.30;;;;;;;11.98;64.59;100748.53;6212054;28;20234;-61
2021/11/07 13:32:49;;;;;;;8.47;3.33;;;;;;;11.80;65.99;100757.47;6209130;28;20272;-61
2021/11/07 13:36:11;;;;;;;14.60;4.90;;;;;;;11.18;67.34;100766.13;6215022;28;20706;-63
2021/11/07 13:39:37;;;;;;;14.27;3.93;;;;;;;10.74;69.28;100790.97;6233416;28;20239;-62
2021/11/07 13:43:04;;;;;;;11.07;3.30;;;;;;;11.36;67.90;100777.22;6229810;28;20748;-64
2021/11/07 13:46:26;;;;;;;10.20;3.63;;;;;;;10.60;71.33;100817.16;6229770;28;20625;-63
2021/11/07 13:49:50;;;;;;;12.43;4.00;;;;;;;10.41;71.48;100790.41;6231791;28;20674;-63
2021/11/07 13:53:18;;;;;;;14.73;4.33;;;;;;;10.53;71.72;100791.19;6227555;28;20610;-62
2021/11/07 13:56:45;;;;;;;11.27;3.80;;;;;;;10.53;71.05;100783.38;6227109;28;20240;-64
2021/11/07 14:00:08;;;;;;;9.03;3.47;;;;;;;10.78;71.17;100794.41;6227396;28;20213;-63
2021/11/07 14:03:35;;;;;;;8.73;3.27;;;;;;;10.96;70.93;100802.03;6227937;28;20240;-63
2021/11/07 14:06:56;;;;;;;7.63;2.67;;;;;;;10.60;70.96;100785.00;6235303;28;20231;-62
2021/11/07 14:10:19;;;;;;;11.87;5.70;;;;;;;10.32;73.06;100816.50;6241999;28;20205;-64
2021/11/07 14:13:44;;;;;;;7.40;3.07;;;;;;;10.49;72.41;100785.13;6240902;28;20362;-62
2021/11/07 14:17:05;;;;;;;8.40;2.60;;;;;;;10.60;72.07;100779.81;6230828;28;20621;-63
2021/11/07 14:20:38;;;;;;;8.37;2.47;;;;;;;10.61;71.95;100776.34;6236819;28;20667;-62
2021/11/07 14:24:06;;;;;;;8.67;3.30;;;;;;;10.27;72.45;100784.41;6214643;28;20236;-63
2021/11/07 14:27:32;;;;;;;12.13;4.10;;;;;;;10.44;71.88;100787.75;6225187;28;20223;-61
2021/11/07 14:30:56;;;;;;;8.07;2.40;;;;;;;10.36;72.04;100786.97;6230235;28;20311;-62
2021/11/07 14:34:20;;;;;;;8.03;2.57;;;;;;;10.83;69.96;100784.78;6234025;28;20572;-62
2021/11/07 14:37:47;;;;;;;10.97;3.57;;;;;;;10.34;72.29;100799.13;6232248;28;20232;-62
2021/11/07 14:41:18;;;;;;;8.77;3.53;;;;;;;10.56;71.82;100805.00;6226074;28;20320;-60
2021/11/07 14:44:44;;;;;;;9.37;2.87;;;;;;;10.00;73.57;100804.59;6231110;28;20193;-62
2021/11/07 14:52:08;;;;;;;12.73;4.17;;;;;;;9.97;74.62;100788.97;6234328;28;20232;-61
2021/11/07 14:55:34;;;;;;;10.73;4.30;;;;;;;10.55;73.60;100799.84;6236229;28;20299;-62
2021/11/07 14:59:05;;;;;;;10.20;3.97;;;;;;;10.16;74.36;100783.66;6236493;28;20264;-62
2021/11/07 15:02:41;;;;;;;9.93;3.23;;;;;;;10.13;74.81;100796.69;6234084;28;20228;-62
2021/11/07 15:06:20;;;;;;;9.17;4.10;;;;;;;9.86;76.06;100790.78;6234193;28;20221;-62
2021/11/07 15:09:55;;;;;;;9.50;3.17;;;;;;;9.74;76.74;100789.13;6233884;28;20205;-62
2021/11/07 15:13:40;;;;;;;15.77;4.87;;;;;;;10.10;76.33;100799.28;6236762;28;20376;-63
2021/11/07 15:17:29;;;;;;;10.07;3.27;;;;;;;10.32;75.27;100805.25;6232667;28;20354;-62
2021/11/07 15:20:56;;;;;;;13.13;3.87;;;;;;;10.54;73.96;100795.50;6237721;28;20228;-62
2021/11/07 15:24:24;;;;;;;10.83;3.63;;;;;;;10.61;73.74;100794.56;6236212;28;20259;-63
2021/11/07 15:27:55;;;;;;;10.47;3.27;;;;;;;10.37;75.08;100800.84;6231673;28;21250;-62
2021/11/07 15:31:18;;;;;;;14.43;4.10;;;;;;;10.32;75.57;100816.50;6232006;28;20244;-62
2021/11/07 15:34:41;;;;;;;11.27;3.23;;;;;;;10.17;75.55;100811.38;6241267;28;20232;-62
2021/11/07 15:38:13;;;;;;;9.83;2.67;;;;;;;9.53;76.69;100815.25;6235380;28;20240;-63
2021/11/07 15:41:34;;;;;;;8.67;3.63;;;;;;;9.22;76.81;100790.25;6237480;28;20247;-62
2021/11/07 15:44:59;;;;;;;9.57;3.40;;;;;;;9.38;77.80;100792.78;6244097;28;20200;-62
2021/11/07 15:48:22;;;;;;;8.07;3.60;;;;;;;9.32;78.17;100798.88;6244261;28;20223;-62
2021/11/07 15:51:49;;;;;;;10.07;3.20;;;;;;;9.06;80.25;100814.56;6243206;28;20432;-62
2021/11/07 15:55:15;;;;;;;11.70;4.10;;;;;;;9.03;79.94;100820.66;6244159;28;20496;-62
2021/11/07 15:58:52;;;;;;;14.47;3.43;;;;;;;9.42;79.40;100816.16;6242140;28;20232;-62
2021/11/07 16:02:16;;;;;;;8.83;3.23;;;;;;;9.07;81.02;100818.88;6241909;28;20231;-62
2021/11/07 16:09:38;;;;;;;9.73;3.57;;;;;;;9.23;80.99;100810.19;6221068;28;20240;-62
2021/11/07 16:13:04;;;;;;;14.60;5.40;;;;;;;9.44;80.38;100805.75;6243091;28;20235;-62
2021/11/07 16:20:13;;;;;;;9.60;3.67;;;;;;;9.19;80.30;100808.47;6234041;28;20213;-62
2021/11/07 16:23:36;;;;;;;12.73;5.57;;;;;;;8.98;81.27;100811.13;6245246;28;20255;-62
2021/11/07 16:26:59;;;;;;;10.17;4.03;;;;;;;8.90;80.79;100815.44;6241527;28;20231;-63
2021/11/07 16:30:19;;;;;;;11.00;3.73;;;;;;;8.99;80.35;100831.88;6241835;28;20836;-63
2021/11/07 16:33:42;;;;;;;16.37;4.43;;;;;;;9.07;80.24;100850.03;6231981;28;20251;-62
2021/11/07 16:37:05;;;;;;;11.13;3.17;;;;;;;8.90;81.43;100844.03;6226198;28;20232;-62
2021/11/07 16:40:31;;;;;;;10.73;3.50;;;;;;;8.82;81.91;100849.22;6217233;28;20615;-62
2021/11/07 16:43:54;;;;;;;16.27;4.43;;;;;;;8.98;81.95;100850.09;6206569;28;20233;-62
2021/11/07 16:47:18;;;;;;;11.27;3.80;;;;;;;8.82;82.58;100857.91;6210029;28;20230;-62
2021/11/07 16:50:48;;;;;;;16.97;4.27;;;;;;;8.91;81.54;100840.56;6220082;28;20889;-62